Time;durP1;ratioP1;P1;durP2;ratioP2;P2;SDS_P1;SDS_P2;PMS_P1;PMS_P2;Temp;Humidity;BMP_temperature;BMP_pressure;BME280_temperature;BME280_humidity;BME280_pressure;Samples;Min_cycle;Max_cycle;Signal;HPM_P1;HPM_P2
2022/06/04 00:00:56;;;;;;;8.50;3.30;;;20.50;70.90;;;;;;6130159;23;20035;-91
2022/06/04 00:03:22;;;;;;;6.70;3.22;;;20.50;70.80;;;;;;6130673;23;20016;-92
2022/06/04 00:05:54;;;;;;;6.95;3.25;;;20.40;70.70;;;;;;6130525;23;20027;-92
2022/06/04 00:08:20;;;;;;;6.72;3.45;;;20.70;71.00;;;;;;6130485;23;20008;-91
2022/06/04 00:16:25;;;;;;;11.93;5.75;;;20.40;70.50;;;;;;6162943;23;20359;-91
2022/06/04 00:18:50;;;;;;;8.90;5.15;;;20.40;70.20;;;;;;6129858;23;20011;-92
2022/06/04 00:21:17;;;;;;;10.07;5.38;;;20.40;70.30;;;;;;6126724;23;20017;-92
2022/06/04 00:23:42;;;;;;;14.20;5.20;;;20.30;70.30;;;;;;6129551;23;20009;-92
2022/06/04 00:26:13;;;;;;;12.13;5.78;;;20.40;70.60;;;;;;6129950;23;20023;-92
2022/06/04 00:28:39;;;;;;;14.02;5.85;;;20.40;70.80;;;;;;6131799;23;20329;-92
2022/06/04 00:31:06;;;;;;;11.45;4.93;;;20.40;71.00;;;;;;6131228;23;20352;-92
2022/06/04 00:33:32;;;;;;;9.77;5.72;;;20.40;71.10;;;;;;6129953;23;20012;-92
2022/06/04 00:35:59;;;;;;;7.50;3.60;;;20.40;71.10;;;;;;6131006;23;20063;-92
2022/06/04 00:38:28;;;;;;;8.55;4.53;;;20.40;71.00;;;;;;6129268;23;20019;-92
2022/06/04 00:41:03;;;;;;;8.35;4.60;;;20.40;71.00;;;;;;6129677;23;20008;-92
2022/06/04 00:43:29;;;;;;;11.93;4.60;;;20.40;71.10;;;;;;6131644;23;20005;-91
2022/06/04 00:46:39;;;;;;;13.70;5.50;;;20.40;71.10;;;;;;6128460;23;20047;-92
2022/06/04 00:49:08;;;;;;;13.35;5.63;;;20.40;71.10;;;;;;6179386;23;20016;-92
2022/06/04 00:51:34;;;;;;;10.93;5.00;;;20.40;71.00;;;;;;6133966;23;20013;-92
2022/06/04 00:54:00;;;;;;;16.67;7.10;;;20.40;71.10;;;;;;6130228;23;20039;-92
2022/06/04 00:57:18;;;;;;;11.70;7.00;;;20.40;71.20;;;;;;6129494;23;20017;-92
2022/06/04 01:00:12;;;;;;;10.93;4.63;;;20.40;71.50;;;;;;6153626;23;20004;-92
2022/06/04 01:03:14;;;;;;;13.38;5.13;;;20.40;71.50;;;;;;6154219;23;20005;-91
2022/06/04 01:06:14;;;;;;;6.35;4.28;;;20.40;71.50;;;;;;6157254;23;20020;-92
2022/06/04 01:08:54;;;;;;;10.13;4.78;;;20.40;71.50;;;;;;6156826;23;20096;-91
2022/06/04 01:12:10;;;;;;;8.50;5.03;;;20.40;71.30;;;;;;6180020;23;20020;-92
2022/06/04 01:15:25;;;;;;;9.77;5.90;;;20.40;71.30;;;;;;6180550;23;20009;-92
2022/06/04 01:18:20;;;;;;;12.57;6.20;;;20.40;71.30;;;;;;6043801;23;20041;-93
2022/06/04 01:21:14;;;;;;;11.35;5.47;;;20.40;71.40;;;;;;6154061;23;20244;-92
2022/06/04 01:24:06;;;;;;;11.18;5.60;;;20.40;71.70;;;;;;6181634;23;20012;-92
2022/06/04 01:27:12;;;;;;;8.30;5.20;;;20.40;71.90;;;;;;6154546;23;20020;-92
2022/06/04 01:29:44;;;;;;;11.27;5.95;;;20.40;72.10;;;;;;6157196;23;20506;-92
2022/06/04 01:32:26;;;;;;;10.85;5.57;;;20.40;72.00;;;;;;6153354;23;20022;-91
2022/06/04 01:35:12;;;;;;;10.02;5.20;;;20.40;72.20;;;;;;6176716;23;20013;-91
2022/06/04 01:37:45;;;;;;;8.55;4.40;;;20.40;72.20;;;;;;6146240;23;20040;-92
2022/06/04 01:43:02;;;;;;;16.30;7.32;;;20.40;71.80;;;;;;6165271;23;20016;-92
2022/06/04 01:45:28;;;;;;;14.90;8.57;;;20.40;71.80;;;;;;6130260;23;20028;-92
2022/06/04 01:47:57;;;;;;;13.00;7.22;;;20.40;72.60;;;;;;6131639;23;20024;-91
2022/06/04 01:50:28;;;;;;;15.25;7.47;;;20.40;72.20;;;;;;6130725;23;20008;-92
2022/06/04 01:52:56;;;;;;;11.65;6.22;;;20.40;72.50;;;;;;6132695;23;20043;-92
2022/06/04 01:55:51;;;;;;;15.15;8.45;;;20.50;72.80;;;;;;6129977;23;20031;-92
2022/06/04 01:58:41;;;;;;;16.80;9.60;;;20.50;72.90;;;;;;6136550;23;20008;-91
2022/06/04 02:01:15;;;;;;;15.05;9.00;;;20.40;73.00;;;;;;6130862;23;20020;-92
2022/06/04 02:03:54;;;;;;;27.27;11.95;;;20.40;73.10;;;;;;6131356;23;20070;-91
2022/06/04 02:06:27;;;;;;;27.13;12.10;;;20.40;73.20;;;;;;6131202;23;20021;-92
2022/06/04 02:09:29;;;;;;;20.30;10.80;;;20.40;73.70;;;;;;6131132;23;20056;-92
2022/06/04 02:11:56;;;;;;;21.42;12.20;;;20.40;74.00;;;;;;6147856;23;20071;-93
2022/06/04 02:14:21;;;;;;;19.73;11.05;;;20.40;74.20;;;;;;6154158;23;20263;-91
2022/06/04 02:16:56;;;;;;;17.88;10.55;;;20.40;74.60;;;;;;6130321;23;20092;-91
2022/06/04 02:19:22;;;;;;;;;;;20.40;75.00;;;;;;6131678;23;20068;-92
2022/06/04 02:21:48;;;;;;;16.85;8.65;;;20.40;75.10;;;;;;6130210;23;20358;-91
2022/06/04 02:24:14;;;;;;;16.63;9.98;;;20.40;75.40;;;;;;6131932;23;20000;-93
2022/06/04 02:26:41;;;;;;;16.95;8.70;;;20.40;75.80;;;;;;6129531;23;20359;-92
2022/06/04 02:29:07;;;;;;;12.95;6.75;;;20.40;76.30;;;;;;6130540;23;20449;-92
2022/06/04 02:31:57;;;;;;;15.32;9.00;;;20.30;76.70;;;;;;6129662;23;20360;-92
2022/06/04 02:34:50;;;;;;;13.77;8.30;;;20.30;77.50;;;;;;6156493;23;20009;-92
2022/06/04 02:37:45;;;;;;;14.75;7.57;;;20.30;78.00;;;;;;6156973;23;20012;-92
2022/06/04 02:40:21;;;;;;;12.30;6.82;;;20.30;78.20;;;;;;6155348;23;20017;-92
2022/06/04 02:43:37;;;;;;;14.75;9.57;;;20.30;78.50;;;;;;6134127;23;19997;-92
2022/06/04 02:46:26;;;;;;;12.85;8.43;;;20.20;79.00;;;;;;6152038;23;20013;-92
2022/06/04 02:49:14;;;;;;;15.68;9.32;;;20.20;79.10;;;;;;6154811;23;20051;-91
2022/06/04 02:51:47;;;;;;;15.75;8.32;;;20.20;79.30;;;;;;6154930;23;20269;-92
2022/06/04 02:54:29;;;;;;;12.52;7.60;;;20.20;79.30;;;;;;6131125;23;20013;-92
2022/06/04 02:56:57;;;;;;;12.27;7.82;;;20.20;79.60;;;;;;6130105;23;20009;-92
2022/06/04 02:59:24;;;;;;;11.35;7.18;;;20.20;79.70;;;;;;6130494;23;20012;-91
2022/06/04 03:01:54;;;;;;;9.02;5.88;;;20.30;79.80;;;;;;6153623;23;20096;-92
2022/06/04 03:04:20;;;;;;;9.05;4.75;;;20.30;79.80;;;;;;6132636;23;20063;-91
2022/06/04 03:06:46;;;;;;;9.20;3.72;;;20.40;80.30;;;;;;6128542;23;20016;-92
2022/06/04 03:09:15;;;;;;;6.93;3.33;;;20.30;79.70;;;;;;6128403;23;20318;-92
2022/06/04 03:11:48;;;;;;;5.40;2.92;;;20.40;79.60;;;;;;6130302;23;20013;-92
2022/06/04 03:14:15;;;;;;;5.38;3.05;;;20.50;79.60;;;;;;6130079;23;20443;-92
2022/06/04 03:16:44;;;;;;;4.50;2.33;;;20.40;79.40;;;;;;6128011;23;20013;-92
2022/06/04 03:19:10;;;;;;;4.50;2.60;;;20.40;79.40;;;;;;6131186;23;20036;-92
2022/06/04 03:21:38;;;;;;;8.73;3.20;;;20.50;79.50;;;;;;6128992;23;20017;-92
2022/06/04 03:24:05;;;;;;;6.53;2.55;;;20.50;79.50;;;;;;6130589;23;20004;-92
2022/06/04 03:26:31;;;;;;;3.25;2.15;;;20.50;79.40;;;;;;6129957;23;20017;-92
2022/06/04 03:28:57;;;;;;;4.53;2.30;;;20.50;79.40;;;;;;6129795;23;20017;-92
2022/06/04 03:31:25;;;;;;;4.43;2.42;;;20.50;79.30;;;;;;6129641;23;20013;-91
2022/06/04 03:33:50;;;;;;;5.28;2.13;;;20.50;79.20;;;;;;6131306;23;20016;-91
2022/06/04 03:36:16;;;;;;;3.90;1.90;;;20.50;79.20;;;;;;6131532;23;20009;-92
2022/06/04 03:38:42;;;;;;;5.88;2.35;;;20.50;79.10;;;;;;6139676;23;20307;-92
2022/06/04 03:41:08;;;;;;;5.47;2.40;;;20.50;79.00;;;;;;6148849;23;20027;-91
2022/06/04 03:43:33;;;;;;;3.15;1.85;;;20.50;79.10;;;;;;6148371;23;20004;-91
2022/06/04 03:45:59;;;;;;;5.55;1.90;;;20.50;78.90;;;;;;6135830;23;20087;-92
2022/06/04 03:48:25;;;;;;;7.15;1.92;;;20.60;78.90;;;;;;6131313;23;20028;-92
2022/06/04 03:50:51;;;;;;;2.28;1.33;;;20.50;78.60;;;;;;6131941;23;20012;-92
2022/06/04 03:53:16;;;;;;;2.25;1.20;;;20.60;78.50;;;;;;6131951;23;20009;-92
2022/06/04 03:55:42;;;;;;;1.52;0.98;;;20.60;78.10;;;;;;6130168;23;20395;-92
2022/06/04 03:58:09;;;;;;;2.78;1.00;;;20.50;78.40;;;;;;6131468;23;20008;-92
2022/06/04 04:00:40;;;;;;;2.08;0.93;;;20.50;77.60;;;;;;6128995;23;20033;-92
2022/06/04 04:03:16;;;;;;;2.95;0.98;;;20.50;77.50;;;;;;6130410;23;20444;-92
2022/06/04 04:05:48;;;;;;;1.58;1.00;;;20.50;77.40;;;;;;6130255;23;20013;-92
2022/06/04 04:08:14;;;;;;;7.28;1.67;;;20.40;77.80;;;;;;6131618;23;20054;-92
2022/06/04 04:10:42;;;;;;;5.70;1.23;;;20.40;77.10;;;;;;6129955;23;20009;-92
2022/06/04 04:13:09;;;;;;;3.22;1.08;;;20.40;77.00;;;;;;6131529;23;20059;-92
2022/06/04 04:15:35;;;;;;;2.67;1.27;;;20.30;76.90;;;;;;6127676;23;20028;-92
2022/06/04 04:18:02;;;;;;;3.97;2.00;;;20.30;77.00;;;;;;6129626;23;20009;-92
2022/06/04 04:20:31;;;;;;;5.45;1.83;;;20.30;76.90;;;;;;6129288;23;20004;-91
2022/06/04 04:22:59;;;;;;;2.08;1.00;;;20.30;76.90;;;;;;6131287;23;20004;-92
2022/06/04 04:25:28;;;;;;;2.75;1.27;;;20.30;76.80;;;;;;6155248;23;20011;-92
2022/06/04 04:27:54;;;;;;;2.92;1.55;;;20.30;76.80;;;;;;6127870;23;20063;-91
2022/06/04 04:30:24;;;;;;;2.80;1.33;;;20.30;76.80;;;;;;6128852;23;20025;-92
2022/06/04 04:32:51;;;;;;;6.30;1.50;;;20.30;76.80;;;;;;6129283;23;20657;-92
2022/06/04 04:35:24;;;;;;;4.53;1.20;;;20.30;76.80;;;;;;6130802;23;20012;-92
2022/06/04 04:37:51;;;;;;;3.40;1.58;;;20.30;76.80;;;;;;6130366;23;20036;-92
2022/06/04 04:40:21;;;;;;;3.33;1.20;;;20.20;76.70;;;;;;6131045;23;20008;-92
2022/06/04 04:42:48;;;;;;;2.95;1.20;;;20.30;76.80;;;;;;6129407;23;20019;-91
2022/06/04 04:45:16;;;;;;;4.65;1.33;;;20.30;76.70;;;;;;6129302;23;20467;-92
2022/06/04 04:47:44;;;;;;;4.40;1.50;;;20.20;76.60;;;;;;6129489;23;20016;-92
2022/06/04 04:50:26;;;;;;;4.22;2.20;;;20.30;76.80;;;;;;6128280;23;20012;-92
2022/06/04 04:52:53;;;;;;;14.07;8.32;;;20.30;76.80;;;;;;6152167;23;20016;-92
2022/06/04 04:55:19;;;;;;;12.02;7.60;;;20.30;77.00;;;;;;6130187;23;20004;-92
2022/06/04 04:57:45;;;;;;;14.20;7.57;;;20.30;77.40;;;;;;6154011;23;20092;-92
2022/06/04 05:00:13;;;;;;;9.85;4.82;;;20.30;77.60;;;;;;6127826;23;20450;-92
2022/06/04 05:02:38;;;;;;;14.65;6.95;;;20.30;77.70;;;;;;6129394;23;20004;-92
2022/06/04 05:05:06;;;;;;;12.75;7.28;;;20.30;77.90;;;;;;6129024;23;20011;-91
2022/06/04 05:07:32;;;;;;;8.73;5.38;;;20.30;77.90;;;;;;6128235;23;20017;-91
2022/06/04 05:09:58;;;;;;;9.25;5.72;;;20.30;77.90;;;;;;6131038;23;20078;-93
2022/06/04 05:12:23;;;;;;;8.13;5.00;;;20.30;77.70;;;;;;6128939;23;20468;-91
2022/06/04 05:14:50;;;;;;;9.30;5.00;;;20.30;77.70;;;;;;6129653;23;20009;-92
2022/06/04 05:17:16;;;;;;;9.63;5.43;;;20.30;77.60;;;;;;6156589;23;20067;-92
2022/06/04 05:19:41;;;;;;;9.32;5.18;;;20.40;77.70;;;;;;6132225;23;20001;-92
2022/06/04 05:22:09;;;;;;;8.50;5.45;;;20.40;77.70;;;;;;6131417;23;20016;-93
2022/06/04 05:24:36;;;;;;;12.57;6.10;;;20.40;77.60;;;;;;6132324;23;20524;-92
2022/06/04 05:27:04;;;;;;;10.43;5.25;;;20.40;77.60;;;;;;6132842;23;20025;-92
2022/06/04 05:29:31;;;;;;;9.98;5.75;;;20.40;77.50;;;;;;6129963;23;20023;-91
2022/06/04 05:31:58;;;;;;;13.25;6.03;;;20.40;77.50;;;;;;6132237;23;20019;-92
2022/06/04 05:34:25;;;;;;;10.50;5.40;;;20.30;77.40;;;;;;6130288;23;20004;-91
2022/06/04 05:36:53;;;;;;;10.15;6.10;;;20.30;77.60;;;;;;6131692;23;20047;-92
2022/06/04 05:39:20;;;;;;;11.18;5.60;;;20.30;77.70;;;;;;6132217;23;20011;-92
2022/06/04 05:41:46;;;;;;;9.93;4.78;;;20.30;77.80;;;;;;6131665;23;20008;-92
2022/06/04 05:44:12;;;;;;;8.85;5.00;;;20.30;77.80;;;;;;6132761;23;20008;-92
2022/06/04 05:46:44;;;;;;;8.18;4.57;;;20.30;77.70;;;;;;6164947;23;20068;-91
2022/06/04 05:49:14;;;;;;;6.82;4.55;;;20.30;77.70;;;;;;6153749;23;20028;-92
2022/06/04 05:51:42;;;;;;;11.98;4.70;;;20.30;77.60;;;;;;6150085;23;20017;-92
2022/06/04 05:54:09;;;;;;;8.85;4.63;;;20.30;77.60;;;;;;6139479;23;20009;-91
2022/06/04 05:56:40;;;;;;;8.63;4.72;;;20.30;77.70;;;;;;6131597;23;20009;-92
2022/06/04 05:59:10;;;;;;;11.23;5.03;;;20.30;77.80;;;;;;6132602;23;20043;-92
2022/06/04 06:01:40;;;;;;;8.63;3.92;;;20.30;77.80;;;;;;6131381;23;20044;-92
2022/06/04 06:04:08;;;;;;;6.80;3.85;;;20.30;77.80;;;;;;6133894;23;20322;-93
2022/06/04 06:06:37;;;;;;;6.85;4.25;;;20.30;77.80;;;;;;6131149;23;20151;-91
2022/06/04 06:09:07;;;;;;;7.18;4.20;;;20.30;77.80;;;;;;6133146;23;20008;-92
2022/06/04 06:11:33;;;;;;;7.72;4.32;;;20.30;77.90;;;;;;6131538;23;20016;-92
2022/06/04 06:13:59;;;;;;;7.70;4.65;;;20.30;78.00;;;;;;6134013;23;20008;-91
2022/06/04 06:16:30;;;;;;;6.25;4.30;;;20.30;78.10;;;;;;6130994;23;20046;-92
2022/06/04 06:18:56;;;;;;;8.35;5.22;;;20.30;78.20;;;;;;6132344;23;20325;-92
2022/06/04 06:21:25;;;;;;;7.10;4.47;;;20.30;78.40;;;;;;6132219;23;20016;-91
2022/06/04 06:23:51;;;;;;;7.55;4.30;;;20.40;78.50;;;;;;6132285;23;20083;-91
2022/06/04 06:26:21;;;;;;;7.80;4.95;;;20.40;78.50;;;;;;6128948;23;20008;-92
2022/06/04 06:28:47;;;;;;;8.25;4.68;;;20.30;78.70;;;;;;6131677;23;20479;-96
2022/06/04 06:31:18;;;;;;;6.47;4.35;;;20.30;78.70;;;;;;6129620;23;20117;-93
2022/06/04 06:33:44;;;;;;;8.95;3.60;;;20.40;78.80;;;;;;6131456;23;20016;-92
2022/06/04 06:36:14;;;;;;;7.55;3.63;;;20.40;78.80;;;;;;6154249;23;20036;-92
2022/06/04 06:38:40;;;;;;;5.78;3.95;;;20.40;78.90;;;;;;6130318;23;20000;-91
2022/06/04 06:41:07;;;;;;;6.43;4.07;;;20.40;79.10;;;;;;6129320;23;20079;-92
2022/06/04 06:46:07;;;;;;;9.23;4.18;;;20.40;79.00;;;;;;6156059;23;20023;-93
2022/06/04 06:48:35;;;;;;;6.15;3.60;;;20.40;79.10;;;;;;6133094;23;20015;-91
2022/06/04 06:51:13;;;;;;;6.10;3.20;;;20.40;79.10;;;;;;6129601;23;20004;-91
2022/06/04 06:53:40;;;;;;;7.47;3.10;;;20.50;79.40;;;;;;6133467;23;20016;-91
2022/06/04 06:56:15;;;;;;;5.57;3.22;;;20.40;79.50;;;;;;6133290;23;20344;-92
2022/06/04 06:58:42;;;;;;;4.90;2.33;;;20.50;79.80;;;;;;6132683;23;20007;-91
2022/06/04 07:01:08;;;;;;;6.53;2.97;;;20.50;79.80;;;;;;6129920;23;20009;-92
2022/06/04 07:03:35;;;;;;;3.88;2.30;;;20.50;80.20;;;;;;6132837;23;20091;-92
2022/06/04 07:06:02;;;;;;;7.82;2.50;;;20.50;80.40;;;;;;6131870;23;20039;-92
2022/06/04 07:08:27;;;;;;;4.57;2.20;;;20.50;80.50;;;;;;6133471;23;20012;-92
2022/06/04 07:10:53;;;;;;;7.38;2.85;;;20.60;80.60;;;;;;6131430;23;20084;-92
2022/06/04 07:13:20;;;;;;;4.57;2.17;;;20.60;81.20;;;;;;6134388;23;20049;-92
2022/06/04 07:15:47;;;;;;;5.45;2.40;;;20.60;80.40;;;;;;6132505;23;20004;-92
2022/06/04 07:18:15;;;;;;;5.22;2.33;;;20.70;80.40;;;;;;6131926;23;20429;-92
2022/06/04 07:20:42;;;;;;;6.28;2.15;;;20.70;80.40;;;;;;6132134;23;20007;-91
2022/06/04 07:23:08;;;;;;;4.47;2.30;;;20.70;80.40;;;;;;6134411;23;20018;-91
2022/06/04 07:25:35;;;;;;;5.78;1.50;;;20.70;80.50;;;;;;6132801;23;20001;-92
2022/06/04 07:28:01;;;;;;;6.40;1.95;;;20.70;80.50;;;;;;6132482;23;20008;-92
2022/06/04 07:30:27;;;;;;;4.15;1.42;;;20.80;80.50;;;;;;6130324;23;20555;-91
2022/06/04 07:32:53;;;;;;;3.05;1.50;;;20.80;80.30;;;;;;6129328;23;20096;-92
2022/06/04 07:35:20;;;;;;;2.00;0.90;;;20.70;80.00;;;;;;6132536;23;20156;-92
2022/06/04 07:37:46;;;;;;;3.60;1.13;;;20.70;79.70;;;;;;6130882;23;20028;-92
2022/06/04 07:40:12;;;;;;;5.22;1.20;;;20.70;79.50;;;;;;6134853;23;20004;-91
2022/06/04 07:42:38;;;;;;;1.88;1.10;;;20.70;79.40;;;;;;6133188;23;20079;-92
2022/06/04 07:45:06;;;;;;;1.73;1.02;;;20.80;79.50;;;;;;6132100;23;20015;-92
2022/06/04 07:47:34;;;;;;;2.63;0.95;;;20.80;80.00;;;;;;6129902;23;20068;-92
2022/06/04 07:50:00;;;;;;;1.38;0.82;;;20.80;79.50;;;;;;6130005;23;20016;-92
2022/06/04 07:52:26;;;;;;;3.17;1.20;;;20.80;79.20;;;;;;6127922;23;20092;-90
2022/06/04 07:54:52;;;;;;;4.93;1.27;;;20.90;78.90;;;;;;6130946;23;20035;-92
2022/06/04 07:57:18;;;;;;;2.17;1.00;;;20.90;78.80;;;;;;6128254;23;20012;-93
2022/06/04 07:59:44;;;;;;;2.33;1.05;;;20.90;79.00;;;;;;6128601;23;20009;-93
2022/06/04 08:02:11;;;;;;;1.05;0.60;;;20.90;79.00;;;;;;6129902;23;20039;-92
2022/06/04 08:04:37;;;;;;;1.67;0.90;;;20.90;78.70;;;;;;6130406;23;20112;-93
2022/06/04 08:07:04;;;;;;;2.47;1.20;;;20.90;78.80;;;;;;6130308;23;20013;-93
2022/06/04 08:09:34;;;;;;;5.45;1.38;;;20.90;78.90;;;;;;6153495;23;20023;-94
2022/06/04 08:12:00;;;;;;;2.15;0.90;;;21.00;79.30;;;;;;6130086;23;20103;-93
2022/06/04 08:14:26;;;;;;;2.25;1.00;;;21.00;79.40;;;;;;6129695;23;20059;-92
2022/06/04 08:17:00;;;;;;;2.53;1.48;;;21.10;79.50;;;;;;6126425;23;20356;-93
2022/06/04 08:19:29;;;;;;;2.87;1.40;;;21.10;79.70;;;;;;6130354;23;20664;-92
2022/06/04 08:21:55;;;;;;;1.60;0.80;;;21.20;80.00;;;;;;6129351;23;20240;-94
2022/06/04 08:24:22;;;;;;;4.28;1.30;;;21.20;80.40;;;;;;6129789;23;20066;-93
2022/06/04 08:26:56;;;;;;;4.43;1.05;;;21.30;80.70;;;;;;6126826;23;20020;-93
2022/06/04 08:29:22;;;;;;;2.75;1.30;;;21.30;80.90;;;;;;6132418;23;20484;-94
2022/06/04 08:31:48;;;;;;;4.68;1.45;;;21.40;81.00;;;;;;6128661;23;20016;-93
2022/06/04 08:34:14;;;;;;;5.63;1.83;;;21.40;81.10;;;;;;6131841;23;20015;-93
2022/06/04 08:36:41;;;;;;;3.53;1.40;;;21.40;81.50;;;;;;6157118;23;20004;-94
2022/06/04 08:39:07;;;;;;;7.57;1.67;;;21.50;81.70;;;;;;6135070;23;20092;-93
2022/06/04 08:42:01;;;;;;;2.15;1.25;;;21.50;81.90;;;;;;6156466;23;20014;-93
2022/06/04 08:44:45;;;;;;;2.95;1.63;;;21.50;81.90;;;;;;6179486;23;20480;-93
2022/06/04 08:47:20;;;;;;;2.75;1.58;;;21.60;82.40;;;;;;6157462;23;20020;-93
2022/06/04 08:50:14;;;;;;;3.08;1.42;;;21.60;82.50;;;;;;6179362;23;20016;-93
2022/06/04 08:52:49;;;;;;;3.17;1.50;;;21.70;82.80;;;;;;6208578;23;20094;-93
2022/06/04 08:58:48;;;;;;;2.33;1.55;;;21.70;82.60;;;;;;6164718;23;20066;-93
2022/06/04 09:01:37;;;;;;;5.75;1.17;;;21.80;82.50;;;;;;6180350;23;20096;-93
2022/06/04 09:04:18;;;;;;;2.90;1.30;;;21.90;82.40;;;;;;6131404;23;20032;-95
2022/06/04 09:07:11;;;;;;;2.50;1.55;;;21.90;82.20;;;;;;6155298;23;20471;-93
2022/06/04 09:09:47;;;;;;;2.40;1.42;;;21.90;82.10;;;;;;6136135;23;20005;-93
2022/06/04 09:12:37;;;;;;;2.78;1.33;;;22.00;82.10;;;;;;6131153;23;20008;-93
2022/06/04 09:15:24;;;;;;;3.10;1.40;;;22.00;81.90;;;;;;6155593;23;20016;-93
2022/06/04 09:17:53;;;;;;;2.88;1.30;;;22.10;81.80;;;;;;6182196;23;20015;-93
2022/06/04 09:20:45;;;;;;;3.80;1.60;;;22.10;81.70;;;;;;6133247;23;20005;-93
2022/06/04 09:23:35;;;;;;;3.83;1.25;;;22.10;81.50;;;;;;6159136;23;20016;-93
2022/06/04 09:26:14;;;;;;;3.72;1.38;;;22.20;81.40;;;;;;6181215;23;20011;-93
2022/06/04 09:29:35;;;;;;;4.15;1.23;;;22.20;81.30;;;;;;6177958;23;20032;-93
2022/06/04 09:32:19;;;;;;;4.38;1.30;;;22.30;81.30;;;;;;6151306;23;20100;-93
2022/06/04 09:34:49;;;;;;;2.27;1.20;;;22.30;81.20;;;;;;6175875;23;20440;-93
2022/06/04 09:37:15;;;;;;;2.58;1.45;;;22.40;81.10;;;;;;6149488;23;20020;-93
2022/06/04 09:40:01;;;;;;;4.18;2.08;;;22.40;81.20;;;;;;6151850;23;20080;-93
2022/06/04 09:42:30;;;;;;;2.15;1.20;;;22.40;80.90;;;;;;6153422;23;20013;-93
2022/06/04 09:45:04;;;;;;;2.13;1.23;;;22.50;80.60;;;;;;6150249;23;20035;-93
2022/06/04 09:47:44;;;;;;;2.57;1.30;;;22.50;80.40;;;;;;6149809;23;20051;-94
2022/06/04 09:50:31;;;;;;;4.97;1.50;;;22.50;80.40;;;;;;6151767;23;20244;-92
2022/06/04 09:53:20;;;;;;;2.40;1.40;;;22.60;80.40;;;;;;6150812;23;20017;-93
2022/06/04 09:55:51;;;;;;;2.42;1.33;;;22.70;80.20;;;;;;6151104;23;20023;-93
2022/06/04 09:58:27;;;;;;;3.67;1.58;;;22.70;79.90;;;;;;6174826;23;20041;-93
2022/06/04 10:01:00;;;;;;;3.38;1.75;;;22.80;79.80;;;;;;6125610;23;20100;-93
2022/06/04 10:03:29;;;;;;;3.65;1.90;;;22.80;79.70;;;;;;6174872;23;20434;-93
2022/06/04 10:06:16;;;;;;;3.28;1.63;;;22.90;79.60;;;;;;6150071;23;20009;-93
2022/06/04 10:11:36;;;;;;;2.55;1.50;;;23.00;79.00;;;;;;6175009;23;20032;-93
2022/06/04 10:14:03;;;;;;;2.58;1.70;;;23.00;78.80;;;;;;6125652;23;20452;-93
2022/06/04 10:16:44;;;;;;;3.10;1.50;;;23.10;78.60;;;;;;6149859;23;20005;-92
2022/06/04 10:19:16;;;;;;;4.35;1.73;;;23.10;78.50;;;;;;6149126;23;20477;-92
2022/06/04 10:21:46;;;;;;;3.20;1.30;;;23.20;77.90;;;;;;6124089;23;20021;-93
2022/06/04 10:24:28;;;;;;;4.18;1.60;;;23.20;77.70;;;;;;6126377;23;20005;-93
2022/06/04 10:27:22;;;;;;;5.05;1.63;;;23.30;77.50;;;;;;6151115;23;20040;-93
2022/06/04 10:30:12;;;;;;;3.28;1.45;;;23.30;77.30;;;;;;6149069;23;20659;-92
2022/06/04 10:33:08;;;;;;;6.20;1.75;;;23.40;77.00;;;;;;6175032;23;20033;-92
2022/06/04 10:36:01;;;;;;;3.10;1.40;;;23.40;76.40;;;;;;6178464;23;20408;-92
2022/06/04 10:38:52;;;;;;;3.22;1.48;;;23.50;76.40;;;;;;6130796;23;20009;-92
2022/06/04 10:41:46;;;;;;;4.50;1.63;;;23.60;76.40;;;;;;6155154;23;20040;-91
2022/06/04 10:44:36;;;;;;;5.45;2.10;;;23.70;76.40;;;;;;6128193;23;20020;-91
2022/06/04 10:47:16;;;;;;;2.33;1.35;;;23.70;75.90;;;;;;6152569;23;20013;-91
2022/06/04 10:50:22;;;;;;;2.55;1.65;;;23.70;75.40;;;;;;6152400;23;20012;-94
2022/06/04 10:53:01;;;;;;;4.68;1.42;;;23.80;75.20;;;;;;6148334;23;20051;-91
2022/06/04 10:55:38;;;;;;;2.88;1.75;;;23.80;75.20;;;;;;6149889;23;20330;-90
2022/06/04 10:58:16;;;;;;;2.75;1.65;;;23.90;75.40;;;;;;6174582;23;20414;-90
2022/06/04 11:00:49;;;;;;;6.45;1.50;;;24.00;75.50;;;;;;6176508;23;20016;-90
2022/06/04 11:03:51;;;;;;;4.28;1.90;;;24.00;75.40;;;;;;6124888;23;20084;-90
2022/06/04 11:06:29;;;;;;;4.57;1.77;;;24.10;75.10;;;;;;6152278;23;20012;-91
2022/06/04 11:09:13;;;;;;;2.13;1.35;;;24.20;75.10;;;;;;6150700;23;20016;-91
2022/06/04 11:11:54;;;;;;;3.10;1.70;;;24.20;75.00;;;;;;6152250;23;20524;-92
2022/06/04 11:14:39;;;;;;;2.53;1.42;;;24.40;75.00;;;;;;6125369;23;20048;-94
2022/06/04 11:17:24;;;;;;;3.05;1.60;;;24.30;74.90;;;;;;6147487;23;20016;-93
2022/06/04 11:19:52;;;;;;;;;;;24.40;74.30;;;;;;6151150;23;20071;-93
2022/06/04 11:22:31;;;;;;;2.90;1.58;;;24.40;74.40;;;;;;6193576;23;19920;-93
2022/06/04 11:25:04;;;;;;;4.72;1.60;;;24.50;74.30;;;;;;6146298;23;20053;-94
2022/06/04 11:27:35;;;;;;;4.28;1.85;;;24.50;74.30;;;;;;6147772;23;20496;-93
2022/06/04 11:30:06;;;;;;;2.88;1.50;;;24.60;74.40;;;;;;6125941;23;20028;-93
2022/06/04 11:32:43;;;;;;;2.78;1.77;;;24.60;74.30;;;;;;6126086;23;20013;-93
2022/06/04 11:35:30;;;;;;;3.92;1.42;;;24.70;74.30;;;;;;6152702;23;20091;-93
2022/06/04 11:38:21;;;;;;;3.95;1.60;;;24.80;74.10;;;;;;6174091;23;20021;-93
2022/06/04 11:41:17;;;;;;;3.22;1.85;;;24.90;74.20;;;;;;6149983;23;20261;-93
2022/06/04 11:44:39;;;;;;;3.75;1.98;;;24.90;73.80;;;;;;6152936;23;20021;-93
2022/06/04 11:47:48;;;;;;;3.47;1.90;;;25.00;73.50;;;;;;6175707;23;20027;-93
2022/06/04 11:50:26;;;;;;;4.38;1.90;;;25.00;73.10;;;;;;6176568;23;20096;-93
2022/06/04 11:53:13;;;;;;;5.45;2.13;;;25.00;73.10;;;;;;6174540;23;20120;-94
2022/06/04 11:56:11;;;;;;;3.30;1.50;;;25.10;72.90;;;;;;6175831;23;20009;-93
2022/06/04 11:59:21;;;;;;;2.65;1.80;;;25.10;72.80;;;;;;6150189;23;20473;-93
2022/06/04 12:02:14;;;;;;;2.75;1.60;;;25.10;72.80;;;;;;6150809;23;20047;-92
2022/06/04 12:04:57;;;;;;;2.95;1.90;;;25.20;72.40;;;;;;6157437;23;20028;-93
2022/06/04 12:07:40;;;;;;;3.97;1.77;;;25.20;72.40;;;;;;6172950;23;20024;-92
2022/06/04 12:10:20;;;;;;;3.30;1.88;;;25.30;72.10;;;;;;6175027;23;20025;-93
2022/06/04 12:13:27;;;;;;;2.15;1.40;;;25.40;72.10;;;;;;6177651;23;20032;-93
2022/06/04 12:16:17;;;;;;;2.85;1.45;;;25.40;71.60;;;;;;6152305;23;20021;-93
2022/06/04 12:18:54;;;;;;;7.65;2.13;;;25.40;71.70;;;;;;6150066;23;20357;-93
2022/06/04 12:24:31;;;;;;;3.85;1.50;;;25.50;71.10;;;;;;6132636;23;20016;-94
2022/06/04 12:27:24;;;;;;;2.60;1.30;;;25.50;71.00;;;;;;6150825;23;20241;-93
2022/06/04 12:29:56;;;;;;;3.67;1.73;;;25.60;70.50;;;;;;6120304;23;20018;-94
2022/06/04 12:32:34;;;;;;;2.53;1.70;;;25.60;70.30;;;;;;6098153;23;20027;-94
2022/06/04 12:35:22;;;;;;;3.65;2.03;;;25.70;69.90;;;;;;6097620;23;20013;-94
2022/06/04 12:37:58;;;;;;;2.97;1.63;;;25.70;70.30;;;;;;6097215;23;20029;-95
2022/06/04 12:40:24;;;;;;;1.88;1.20;;;25.70;69.20;;;;;;6100412;23;20064;-95
2022/06/04 12:43:13;;;;;;;2.50;1.65;;;25.80;69.30;;;;;;6147196;23;20018;-95
2022/06/04 12:45:47;;;;;;;2.28;1.45;;;25.80;69.20;;;;;;6130536;23;20060;-95
2022/06/04 12:49:20;;;;;;;3.13;1.55;;;25.80;69.40;;;;;;6103563;23;20014;-94
2022/06/04 12:51:51;;;;;;;3.45;1.85;;;25.90;68.50;;;;;;6076937;23;20013;-94
2022/06/04 12:54:41;;;;;;;4.20;1.60;;;25.90;68.10;;;;;;6119825;23;20018;-93
2022/06/04 12:57:37;;;;;;;2.35;1.35;;;25.90;68.50;;;;;;6122196;23;20037;-94
2022/06/04 13:00:18;;;;;;;2.38;1.50;;;25.90;68.50;;;;;;6122060;23;20500;-94
2022/06/04 13:03:08;;;;;;;3.45;1.42;;;25.90;69.00;;;;;;6146793;23;20045;-94
2022/06/04 13:05:59;;;;;;;4.13;1.92;;;25.90;69.40;;;;;;6118526;23;20449;-93
2022/06/04 13:08:36;;;;;;;5.22;1.63;;;25.90;69.70;;;;;;6132547;23;20449;-93
2022/06/04 13:11:44;;;;;;;3.97;1.30;;;25.80;70.10;;;;;;6123391;23;20005;-95
2022/06/04 13:14:35;;;;;;;3.08;1.83;;;25.80;71.10;;;;;;6147458;23;20024;-94
2022/06/04 13:17:38;;;;;;;2.72;1.42;;;25.80;71.50;;;;;;6146758;23;20101;-94
2022/06/04 13:20:40;;;;;;;4.07;1.70;;;25.80;71.90;;;;;;6146820;23;20029;-94
2022/06/04 13:23:43;;;;;;;2.33;1.50;;;25.80;72.40;;;;;;6121034;23;20457;-94
2022/06/04 13:26:37;;;;;;;4.15;1.63;;;25.70;72.60;;;;;;6122557;23;20014;-94
2022/06/04 13:29:30;;;;;;;7.93;2.30;;;25.70;72.90;;;;;;6121046;23;20030;-94
2022/06/04 13:32:03;;;;;;;4.28;2.25;;;25.60;73.30;;;;;;6122306;23;20009;-95
2022/06/04 13:34:33;;;;;;;17.17;3.55;;;25.60;73.90;;;;;;6121171;23;20013;-95
2022/06/04 13:37:08;;;;;;;8.27;2.05;;;25.60;74.70;;;;;;6098434;23;20005;-95
2022/06/04 13:39:36;;;;;;;10.15;2.95;;;25.60;75.10;;;;;;6098569;23;20010;-95
2022/06/04 13:42:16;;;;;;;4.22;1.50;;;25.60;75.90;;;;;;6097646;23;20013;-94
2022/06/04 13:44:55;;;;;;;7.90;1.63;;;25.50;75.90;;;;;;6098141;23;20017;-95
2022/06/04 13:47:29;;;;;;;2.58;1.23;;;25.50;76.10;;;;;;6099494;23;20017;-95
2022/06/04 13:50:07;;;;;;;2.35;1.60;;;25.40;75.40;;;;;;6125482;23;20453;-95